Time;durP1;ratioP1;P1;durP2;ratioP2;P2;SDS_P1;SDS_P2;PMS_P1;PMS_P2;Temp;Humidity;BMP_temperature;BMP_pressure;BME280_temperature;BME280_humidity;BME280_pressure;Samples;Min_cycle;Max_cycle;Signal;HPM_P1;HPM_P2
2024/03/07 00:02:19;;;;;;;54.57;25.23;;;7.90;86.20;;;;;;5006941;28;20510;-71
2024/03/07 00:04:44;;;;;;;55.33;24.80;;;7.60;85.90;;;;;;5009427;28;20445;-70
2024/03/07 00:07:10;;;;;;;54.60;24.93;;;7.60;86.00;;;;;;5006193;28;20189;-69
2024/03/07 00:09:36;;;;;;;63.50;26.77;;;7.60;86.20;;;;;;5008821;28;20604;-72
2024/03/07 00:12:03;;;;;;;54.40;25.07;;;7.60;86.20;;;;;;5006434;28;20202;-71
2024/03/07 00:14:29;;;;;;;50.60;23.67;;;7.50;86.00;;;;;;5009349;28;20517;-71
2024/03/07 00:16:57;;;;;;;49.20;22.83;;;7.60;86.20;;;;;;5009398;28;20883;-74
2024/03/07 00:19:26;;;;;;;51.30;23.57;;;7.70;86.00;;;;;;5010064;28;20190;-71
2024/03/07 00:21:58;;;;;;;50.90;24.10;;;7.70;86.00;;;;;;5006395;28;20559;-71
2024/03/07 00:24:24;;;;;;;51.57;22.97;;;7.70;85.90;;;;;;5010358;28;20429;-71
2024/03/07 00:26:51;;;;;;;53.43;24.13;;;7.70;85.70;;;;;;5010242;28;20425;-71
2024/03/07 00:29:18;;;;;;;57.27;25.20;;;7.70;85.50;;;;;;5011506;28;20409;-72
2024/03/07 00:31:45;;;;;;;49.40;24.10;;;7.50;85.30;;;;;;5007573;28;20460;-71
2024/03/07 00:34:10;;;;;;;53.83;24.17;;;7.50;85.50;;;;;;5011147;28;21151;-70
2024/03/07 00:36:36;;;;;;;50.40;23.47;;;7.60;85.50;;;;;;5002746;28;20567;-72
2024/03/07 00:39:02;;;;;;;52.90;24.30;;;7.60;85.50;;;;;;5011818;28;20255;-71
2024/03/07 00:41:27;;;;;;;57.13;25.70;;;7.50;85.50;;;;;;5009514;28;20209;-69
2024/03/07 00:43:53;;;;;;;53.40;23.83;;;7.50;85.20;;;;;;5011358;28;20209;-70
2024/03/07 00:46:18;;;;;;;62.17;27.27;;;7.50;85.20;;;;;;5010465;28;20636;-72
2024/03/07 00:48:45;;;;;;;63.10;25.43;;;7.50;85.00;;;;;;5013258;28;20177;-73
2024/03/07 00:51:11;;;;;;;58.57;26.10;;;7.50;84.70;;;;;;5001174;28;20221;-71
2024/03/07 00:53:36;;;;;;;52.53;24.17;;;7.50;84.60;;;;;;5009813;28;20508;-70
2024/03/07 00:56:02;;;;;;;61.37;27.23;;;7.30;84.10;;;;;;5009392;28;20570;-71
2024/03/07 00:58:28;;;;;;;53.10;24.20;;;7.30;84.10;;;;;;5009578;28;20421;-71
2024/03/07 01:00:54;;;;;;;52.13;25.57;;;7.40;83.80;;;;;;5005770;28;20514;-73
2024/03/07 01:03:19;;;;;;;54.70;25.43;;;7.40;83.80;;;;;;5014046;28;20719;-72
2024/03/07 01:05:45;;;;;;;59.47;26.67;;;7.30;83.70;;;;;;5009266;28;20194;-71
2024/03/07 01:08:11;;;;;;;55.50;26.43;;;7.20;83.80;;;;;;5009377;28;20224;-71
2024/03/07 01:10:37;;;;;;;72.10;27.63;;;7.20;84.00;;;;;;5007024;28;20495;-72
2024/03/07 01:13:05;;;;;;;55.10;26.13;;;7.10;84.10;;;;;;5009411;28;20174;-73
2024/03/07 01:15:32;;;;;;;58.83;25.97;;;7.10;84.10;;;;;;5009486;28;20555;-72
2024/03/07 01:17:58;;;;;;;60.70;27.40;;;7.00;84.30;;;;;;4996905;28;20421;-74
2024/03/07 01:20:25;;;;;;;57.93;25.30;;;7.00;84.40;;;;;;5008479;28;20421;-71
2024/03/07 01:22:51;;;;;;;60.90;28.10;;;7.10;84.40;;;;;;5007946;28;20673;-70
2024/03/07 01:25:17;;;;;;;57.80;25.67;;;7.00;84.30;;;;;;5009779;28;20417;-72
2024/03/07 01:27:43;;;;;;;49.27;25.50;;;7.10;84.30;;;;;;5010708;28;20515;-72
2024/03/07 01:30:09;;;;;;;51.07;25.03;;;7.10;84.30;;;;;;5011794;28;20559;-72
2024/03/07 01:32:35;;;;;;;55.57;23.87;;;7.00;84.30;;;;;;5009930;28;20285;-71
2024/03/07 01:35:00;;;;;;;61.83;24.83;;;7.10;84.30;;;;;;5012744;28;20519;-71
2024/03/07 01:37:26;;;;;;;58.30;27.30;;;7.10;84.10;;;;;;5012751;28;20273;-73
2024/03/07 01:39:52;;;;;;;65.80;25.87;;;7.10;84.40;;;;;;5014316;28;20193;-71
2024/03/07 01:42:17;;;;;;;64.13;25.80;;;7.00;84.60;;;;;;5010385;28;21010;-74
2024/03/07 01:44:44;;;;;;;53.83;24.33;;;7.00;84.60;;;;;;5013073;28;20808;-71
2024/03/07 01:47:10;;;;;;;54.50;23.83;;;7.10;84.40;;;;;;5011376;28;20192;-70
2024/03/07 01:49:36;;;;;;;56.60;25.50;;;7.00;84.30;;;;;;5015994;28;20444;-72
2024/03/07 01:52:07;;;;;;;56.67;25.00;;;7.00;84.10;;;;;;5010326;28;20476;-71
2024/03/07 01:54:34;;;;;;;64.30;25.57;;;6.90;84.10;;;;;;5013301;28;20424;-71
2024/03/07 01:57:01;;;;;;;64.97;28.50;;;6.90;84.00;;;;;;5012374;28;21027;-71
2024/03/07 01:59:29;;;;;;;59.07;26.83;;;6.80;84.10;;;;;;5012690;28;20483;-70
2024/03/07 02:01:56;;;;;;;64.33;29.93;;;6.50;83.80;;;;;;5008866;28;20475;-70
2024/03/07 02:04:23;;;;;;;64.00;30.60;;;6.40;84.30;;;;;;5012282;28;20429;-71
2024/03/07 02:06:49;;;;;;;69.20;28.27;;;6.20;84.30;;;;;;5012293;28;20503;-70
2024/03/07 02:09:15;;;;;;;64.07;27.73;;;6.10;84.70;;;;;;5012238;28;20433;-73
2024/03/07 02:11:41;;;;;;;66.97;29.33;;;6.00;84.90;;;;;;5009918;28;20459;-70
2024/03/07 02:14:06;;;;;;;57.90;25.77;;;6.00;85.00;;;;;;5012675;28;20178;-71
2024/03/07 02:16:32;;;;;;;64.23;26.93;;;6.00;85.00;;;;;;5011907;28;20198;-72
2024/03/07 02:18:59;;;;;;;62.57;28.10;;;6.00;85.30;;;;;;5012278;28;20272;-71
2024/03/07 02:21:25;;;;;;;64.17;29.87;;;6.00;85.00;;;;;;5009843;28;20233;-72
2024/03/07 02:23:51;;;;;;;60.60;26.67;;;6.00;85.00;;;;;;5012488;28;20853;-71
2024/03/07 02:26:16;;;;;;;62.50;27.97;;;6.00;85.30;;;;;;5012149;28;20182;-73
2024/03/07 02:28:42;;;;;;;65.60;29.10;;;6.00;85.30;;;;;;5018453;28;20188;-74
2024/03/07 02:31:07;;;;;;;66.13;29.57;;;5.90;85.30;;;;;;5010183;28;20193;-72
2024/03/07 02:33:33;;;;;;;61.80;27.43;;;5.90;85.30;;;;;;5012436;28;20206;-71
2024/03/07 02:35:59;;;;;;;69.03;29.83;;;5.90;85.30;;;;;;5012754;28;20213;-71
2024/03/07 02:38:24;;;;;;;63.43;27.97;;;5.80;85.20;;;;;;5014287;28;20182;-70
2024/03/07 02:40:50;;;;;;;66.53;27.73;;;5.70;85.00;;;;;;5010368;28;20217;-69
2024/03/07 02:43:15;;;;;;;67.23;28.27;;;5.70;85.00;;;;;;5014846;28;20182;-72
2024/03/07 02:45:41;;;;;;;73.07;30.27;;;5.70;84.70;;;;;;5014141;28;20181;-72
2024/03/07 02:48:09;;;;;;;71.80;31.23;;;5.70;84.70;;;;;;5013814;28;20198;-71
2024/03/07 02:50:37;;;;;;;73.57;30.20;;;5.60;84.30;;;;;;5009813;28;20194;-72
2024/03/07 02:53:06;;;;;;;63.60;29.40;;;5.50;84.10;;;;;;5010916;28;20441;-70
2024/03/07 02:55:32;;;;;;;63.17;29.07;;;5.50;84.10;;;;;;5012425;28;21003;-70
2024/03/07 02:57:58;;;;;;;68.63;28.63;;;5.50;84.30;;;;;;5012657;28;20475;-70
2024/03/07 03:00:29;;;;;;;65.67;28.70;;;5.40;84.30;;;;;;5010977;28;20452;-71
2024/03/07 03:02:56;;;;;;;74.00;31.10;;;5.40;84.40;;;;;;5010414;28;20949;-71
2024/03/07 03:05:22;;;;;;;72.97;31.40;;;5.40;84.70;;;;;;5011984;28;20523;-71
2024/03/07 03:07:54;;;;;;;66.13;28.70;;;5.30;84.90;;;;;;5012924;28;20421;-71
2024/03/07 03:10:25;;;;;;;71.23;29.50;;;5.20;85.00;;;;;;5011403;28;20469;-70
2024/03/07 03:12:53;;;;;;;56.70;26.50;;;5.10;85.20;;;;;;5009758;28;20536;-71
2024/03/07 03:15:20;;;;;;;58.47;26.77;;;5.10;85.50;;;;;;5011323;28;20477;-70
2024/03/07 03:17:47;;;;;;;70.20;30.63;;;5.00;85.50;;;;;;5012156;28;20889;-69
2024/03/07 03:20:24;;;;;;;79.57;31.03;;;5.00;85.70;;;;;;5009332;28;20417;-71
2024/03/07 03:22:54;;;;;;;69.60;30.13;;;4.90;85.70;;;;;;5014121;28;20443;-71
2024/03/07 03:25:21;;;;;;;76.47;31.60;;;4.90;85.50;;;;;;5010723;28;20425;-70
2024/03/07 03:27:47;;;;;;;74.33;30.50;;;4.80;85.60;;;;;;5011308;28;20475;-72
2024/03/07 03:30:14;;;;;;;82.50;32.90;;;4.70;85.60;;;;;;5010963;28;20512;-72
2024/03/07 03:32:42;;;;;;;78.63;34.13;;;4.70;85.70;;;;;;5008910;28;20495;-70
2024/03/07 03:35:13;;;;;;;79.07;32.10;;;4.60;85.90;;;;;;5010888;28;20933;-71
2024/03/07 03:37:47;;;;;;;70.17;29.70;;;4.60;86.00;;;;;;5010875;28;20436;-72
2024/03/07 03:40:13;;;;;;;77.97;32.20;;;4.50;86.20;;;;;;5011855;28;20511;-71
2024/03/07 03:42:40;;;;;;;65.40;29.10;;;4.40;86.30;;;;;;5009599;28;21065;-71
2024/03/07 03:45:07;;;;;;;70.30;30.93;;;4.30;86.30;;;;;;5011652;28;20193;-71
2024/03/07 03:47:36;;;;;;;79.27;32.90;;;4.10;86.50;;;;;;5014544;28;20452;-70
2024/03/07 03:50:06;;;;;;;69.77;30.03;;;4.10;86.80;;;;;;5010597;28;20445;-71
2024/03/07 03:52:34;;;;;;;80.70;35.20;;;4.00;87.00;;;;;;5009072;28;20469;-71
2024/03/07 03:55:01;;;;;;;80.43;33.33;;;4.00;87.30;;;;;;5009485;28;20528;-71
2024/03/07 03:57:29;;;;;;;96.87;35.03;;;3.90;87.40;;;;;;5011313;28;20504;-72
2024/03/07 03:59:55;;;;;;;86.37;36.83;;;3.90;87.60;;;;;;5011398;28;20511;-72
2024/03/07 04:02:22;;;;;;;72.97;32.50;;;3.80;87.70;;;;;;5008897;28;20460;-71
2024/03/07 04:04:48;;;;;;;91.00;34.13;;;3.80;87.70;;;;;;5014891;28;20862;-69
2024/03/07 04:07:15;;;;;;;81.77;34.67;;;3.80;88.00;;;;;;5013347;28;20425;-71
2024/03/07 04:09:42;;;;;;;83.00;34.83;;;3.70;88.00;;;;;;5010201;28;20425;-69
2024/03/07 04:12:10;;;;;;;81.57;33.10;;;3.70;88.10;;;;;;5011919;28;20544;-72
2024/03/07 04:14:40;;;;;;;95.67;35.13;;;3.70;88.40;;;;;;5010220;28;20444;-72
2024/03/07 04:17:07;;;;;;;79.30;33.93;;;3.70;88.60;;;;;;5009913;28;20484;-71
2024/03/07 04:19:38;;;;;;;85.27;34.27;;;3.70;88.60;;;;;;5010724;28;20516;-70
2024/03/07 04:22:04;;;;;;;79.63;33.00;;;3.70;88.70;;;;;;5007061;28;20881;-71
2024/03/07 04:24:33;;;;;;;87.70;33.80;;;3.80;88.60;;;;;;5010002;28;20421;-70
2024/03/07 04:27:05;;;;;;;80.10;33.00;;;3.90;88.60;;;;;;5009800;28;20190;-71
2024/03/07 04:29:34;;;;;;;87.37;34.90;;;3.90;88.60;;;;;;5009173;28;20429;-71
2024/03/07 04:32:01;;;;;;;81.97;33.73;;;4.00;88.40;;;;;;5006681;28;20473;-69
2024/03/07 04:34:30;;;;;;;95.50;33.83;;;4.00;88.30;;;;;;5010334;28;20413;-72
2024/03/07 04:37:01;;;;;;;78.40;32.27;;;4.00;88.30;;;;;;5010021;28;20553;-71
2024/03/07 04:39:32;;;;;;;80.40;30.80;;;4.00;88.10;;;;;;5013124;28;20421;-72
2024/03/07 04:42:05;;;;;;;77.27;31.97;;;4.00;88.00;;;;;;5007948;28;20518;-72
2024/03/07 04:44:32;;;;;;;79.83;33.87;;;3.90;87.80;;;;;;5006333;28;20417;-70
2024/03/07 04:47:00;;;;;;;79.97;32.10;;;3.90;87.70;;;;;;5011639;28;20847;-71
2024/03/07 04:49:27;;;;;;;75.73;31.20;;;3.90;87.60;;;;;;5013888;28;20583;-72
2024/03/07 04:52:00;;;;;;;89.63;37.83;;;3.90;87.40;;;;;;5006900;28;20465;-72
2024/03/07 04:54:27;;;;;;;82.70;32.50;;;3.80;87.40;;;;;;5003784;28;20425;-71
2024/03/07 04:56:53;;;;;;;83.10;34.17;;;3.60;87.30;;;;;;5006681;28;20464;-72
2024/03/07 04:59:20;;;;;;;90.80;37.10;;;3.50;87.40;;;;;;5009683;28;20417;-72
2024/03/07 05:01:47;;;;;;;87.67;37.03;;;3.40;87.60;;;;;;5006606;28;20902;-70
2024/03/07 05:04:14;;;;;;;84.87;33.77;;;3.40;87.70;;;;;;5011170;28;20428;-72
2024/03/07 05:06:40;;;;;;;80.23;31.93;;;3.30;87.70;;;;;;5014857;28;20454;-70
2024/03/07 05:09:08;;;;;;;83.10;31.77;;;3.30;87.80;;;;;;5014050;28;20451;-70
2024/03/07 05:11:35;;;;;;;89.53;35.10;;;3.30;88.00;;;;;;5009867;28;20472;-71
2024/03/07 05:14:01;;;;;;;73.60;30.30;;;3.30;88.00;;;;;;5013695;28;20455;-71
2024/03/07 05:16:27;;;;;;;92.53;34.87;;;3.30;88.00;;;;;;5013677;28;20468;-72
2024/03/07 05:18:53;;;;;;;84.30;33.40;;;3.30;88.00;;;;;;5014178;28;20853;-72
2024/03/07 05:21:40;;;;;;;87.07;35.13;;;3.30;88.00;;;;;;5010476;28;20530;-71
2024/03/07 05:24:07;;;;;;;86.60;34.43;;;3.30;88.00;;;;;;5013947;28;20436;-72
2024/03/07 05:26:37;;;;;;;84.57;34.10;;;3.20;87.80;;;;;;5008337;28;20425;-71
2024/03/07 05:29:09;;;;;;;84.63;33.93;;;3.20;88.00;;;;;;5017597;28;20490;-72
2024/03/07 05:31:46;;;;;;;76.57;33.15;;;3.20;88.00;;;;;;5005064;28;20475;-71
2024/03/07 05:34:13;;;;;;;71.70;31.40;;;3.20;88.00;;;;;;5013038;28;20177;-70
2024/03/07 05:36:46;;;;;;;81.00;33.20;;;3.20;88.10;;;;;;5013111;28;20474;-73
2024/03/07 05:39:13;;;;;;;95.07;35.40;;;3.30;88.10;;;;;;5013364;28;20424;-71
2024/03/07 05:41:40;;;;;;;79.77;33.30;;;3.30;88.10;;;;;;5011803;28;20544;-71
2024/03/07 05:44:08;;;;;;;80.33;32.83;;;3.30;88.00;;;;;;5013408;28;20844;-71
2024/03/07 05:46:36;;;;;;;83.23;32.80;;;3.30;88.00;;;;;;5012814;28;20416;-70
2024/03/07 05:49:03;;;;;;;77.27;31.70;;;3.30;87.80;;;;;;5016411;28;20892;-73
2024/03/07 05:51:28;;;;;;;79.60;30.40;;;3.30;87.70;;;;;;5008449;28;20476;-71
2024/03/07 05:53:54;;;;;;;82.07;33.53;;;3.30;87.70;;;;;;5012955;28;20539;-70
2024/03/07 05:56:19;;;;;;;77.80;31.10;;;3.20;87.60;;;;;;5012864;28;20210;-72
2024/03/07 05:58:45;;;;;;;76.40;31.60;;;3.10;87.60;;;;;;4999286;28;20185;-72
2024/03/07 06:01:11;;;;;;;78.80;31.87;;;3.10;87.60;;;;;;5011060;28;20707;-72
2024/03/07 06:03:37;;;;;;;72.73;28.60;;;3.00;87.70;;;;;;5013941;28;20227;-71
2024/03/07 06:06:04;;;;;;;85.80;34.03;;;3.00;87.70;;;;;;5013220;28;20413;-71
2024/03/07 06:08:30;;;;;;;83.87;33.47;;;3.00;87.80;;;;;;5014310;28;20248;-72
2024/03/07 06:10:56;;;;;;;80.93;33.20;;;2.90;87.70;;;;;;5009589;28;20475;-72
2024/03/07 06:13:21;;;;;;;88.83;34.40;;;2.80;87.70;;;;;;5012925;28;20185;-70
2024/03/07 06:15:47;;;;;;;88.67;33.07;;;2.80;87.80;;;;;;5013882;28;20237;-71
2024/03/07 06:18:16;;;;;;;81.70;31.38;;;2.80;87.80;;;;;;5012684;28;20174;-73
2024/03/07 06:20:43;;;;;;;90.18;33.28;;;2.80;88.00;;;;;;5009253;28;21930;-73
2024/03/07 06:23:10;;;;;;;84.77;34.30;;;2.80;88.10;;;;;;5012798;28;20182;-69
2024/03/07 06:25:50;;;;;;;83.30;32.47;;;2.70;88.10;;;;;;5012319;28;20960;-71
2024/03/07 06:28:16;;;;;;;80.57;31.30;;;2.70;88.10;;;;;;5012030;28;20925;-71
2024/03/07 06:30:45;;;;;;;86.53;33.37;;;2.70;88.30;;;;;;5008862;28;20515;-71
2024/03/07 06:33:11;;;;;;;76.83;31.63;;;2.70;88.40;;;;;;5012204;28;21213;-71
2024/03/07 06:35:38;;;;;;;86.53;32.53;;;2.80;88.60;;;;;;5012886;28;20460;-71
2024/03/07 06:38:08;;;;;;;90.22;35.88;;;2.80;88.60;;;;;;5012536;28;20186;-72
2024/03/07 06:40:40;;;;;;;86.47;33.30;;;2.90;88.60;;;;;;5011517;28;20213;-72
2024/03/07 06:43:07;;;;;;;91.23;35.53;;;2.80;88.40;;;;;;5012304;28;20417;-72
2024/03/07 06:45:33;;;;;;;81.75;33.25;;;2.90;88.60;;;;;;5012463;28;20424;-72
2024/03/07 06:48:00;;;;;;;75.13;32.05;;;2.90;88.60;;;;;;5012038;28;20194;-71
2024/03/07 06:50:28;;;;;;;93.50;34.57;;;2.90;88.60;;;;;;5010548;28;20194;-71
2024/03/07 06:52:55;;;;;;;86.77;33.10;;;3.00;88.60;;;;;;5011753;28;20432;-72
2024/03/07 06:55:21;;;;;;;78.80;30.77;;;3.00;88.30;;;;;;5011567;28;20865;-71
2024/03/07 06:57:46;;;;;;;75.47;32.23;;;3.00;87.40;;;;;;5012234;28;20540;-72
2024/03/07 07:00:18;;;;;;;76.90;30.13;;;3.00;86.80;;;;;;5011680;28;20212;-75
2024/03/07 07:02:44;;;;;;;70.03;28.53;;;3.00;86.50;;;;;;5011973;28;20182;-73
2024/03/07 07:05:15;;;;;;;72.20;29.30;;;3.10;86.20;;;;;;5011715;28;20432;-72
2024/03/07 07:07:53;;;;;;;81.90;31.00;;;3.10;85.70;;;;;;5011915;28;20201;-68
2024/03/07 07:10:19;;;;;;;76.13;29.87;;;3.10;85.60;;;;;;5011877;28;20413;-73
2024/03/07 07:12:54;;;;;;;64.77;28.57;;;3.20;85.50;;;;;;5008754;28;20982;-72
2024/03/07 07:15:20;;;;;;;69.77;30.20;;;3.30;85.20;;;;;;5011751;28;20200;-71
2024/03/07 07:17:47;;;;;;;70.17;27.90;;;3.30;85.00;;;;;;5011929;28;20962;-72
2024/03/07 07:20:16;;;;;;;66.70;28.37;;;3.30;85.00;;;;;;5010410;28;20178;-73
2024/03/07 07:22:43;;;;;;;76.00;30.57;;;3.50;85.00;;;;;;5008516;28;20425;-74
2024/03/07 07:25:15;;;;;;;68.23;30.03;;;3.50;84.60;;;;;;5012138;28;20762;-73
2024/03/07 07:27:45;;;;;;;62.53;27.50;;;3.50;84.30;;;;;;5011534;28;20420;-73
2024/03/07 07:30:13;;;;;;;65.83;27.87;;;3.50;84.10;;;;;;5011016;28;20890;-72
2024/03/07 07:32:39;;;;;;;75.87;29.33;;;3.60;84.00;;;;;;5009188;28;20586;-72
2024/03/07 07:35:11;;;;;;;63.97;26.23;;;3.70;83.80;;;;;;5010734;28;20429;-72
2024/03/07 07:37:40;;;;;;;68.03;28.47;;;3.70;83.60;;;;;;5011359;28;20512;-74
2024/03/07 07:40:08;;;;;;;62.50;28.53;;;3.60;83.10;;;;;;5012040;28;20473;-70
2024/03/07 07:42:38;;;;;;;67.07;27.63;;;3.60;83.00;;;;;;5008418;28;20478;-71
2024/03/07 07:45:06;;;;;;;61.40;26.80;;;3.70;82.80;;;;;;5009455;28;20893;-72
2024/03/07 07:47:32;;;;;;;64.00;26.40;;;3.60;82.50;;;;;;5005556;28;20471;-72
2024/03/07 07:49:58;;;;;;;62.17;26.70;;;3.80;82.80;;;;;;5010863;28;20529;-71
2024/03/07 07:52:24;;;;;;;63.93;25.90;;;3.80;82.50;;;;;;5009710;28;20557;-71
2024/03/07 07:54:49;;;;;;;62.70;27.10;;;3.80;82.10;;;;;;5011038;28;20220;-72
2024/03/07 07:57:16;;;;;;;59.03;24.87;;;3.80;81.90;;;;;;5010979;28;20276;-74
2024/03/07 07:59:41;;;;;;;68.60;27.70;;;3.90;81.80;;;;;;5010368;28;20437;-73
2024/03/07 08:02:07;;;;;;;68.20;26.73;;;4.00;81.80;;;;;;5007770;28;20216;-73
2024/03/07 08:04:33;;;;;;;60.73;25.50;;;4.10;81.50;;;;;;5010720;28;20192;-71
2024/03/07 08:06:59;;;;;;;64.97;27.37;;;4.10;80.80;;;;;;5010665;28;20178;-74
2024/03/07 08:09:25;;;;;;;55.30;24.90;;;4.00;80.80;;;;;;5012724;28;20475;-74
2024/03/07 08:11:52;;;;;;;57.20;25.00;;;4.00;80.60;;;;;;5011191;28;20219;-73
2024/03/07 08:14:18;;;;;;;62.93;25.67;;;4.00;81.10;;;;;;5000431;28;20593;-72
2024/03/07 08:16:43;;;;;;;57.30;25.67;;;3.90;80.80;;;;;;5010494;28;20518;-72
2024/03/07 08:19:11;;;;;;;60.10;25.97;;;3.80;80.90;;;;;;5010273;28;20427;-73
2024/03/07 08:21:37;;;;;;;54.70;22.97;;;3.90;81.20;;;;;;5007585;28;20206;-72
2024/03/07 08:24:05;;;;;;;58.13;23.77;;;4.00;81.10;;;;;;5010624;28;20917;-72
2024/03/07 08:26:32;;;;;;;58.93;24.30;;;3.90;80.30;;;;;;5010685;28;20443;-73
2024/03/07 08:28:57;;;;;;;54.20;22.40;;;4.10;80.80;;;;;;5010340;28;20421;-72
2024/03/07 08:31:23;;;;;;;48.40;22.50;;;4.20;80.20;;;;;;5007674;28;20788;-73
2024/03/07 08:33:48;;;;;;;49.47;21.43;;;4.20;79.60;;;;;;5010293;28;20309;-73
2024/03/07 08:36:14;;;;;;;55.83;24.30;;;4.30;79.20;;;;;;5001676;28;20223;-72
2024/03/07 08:38:40;;;;;;;57.50;24.13;;;4.30;79.00;;;;;;5012246;28;20899;-72
2024/03/07 08:41:05;;;;;;;46.10;22.00;;;4.30;78.90;;;;;;5009688;28;20222;-72
2024/03/07 08:43:31;;;;;;;51.90;23.90;;;4.40;78.70;;;;;;5010198;28;20201;-74
2024/03/07 08:45:57;;;;;;;48.00;23.47;;;4.40;78.60;;;;;;5009638;28;20288;-73
2024/03/07 08:48:22;;;;;;;43.00;20.93;;;4.50;78.90;;;;;;5013416;28;20687;-72
2024/03/07 08:50:48;;;;;;;51.10;21.77;;;4.70;78.60;;;;;;5006796;28;20251;-72
2024/03/07 08:53:13;;;;;;;49.67;21.50;;;5.00;78.40;;;;;;5010437;28;20182;-72
2024/03/07 08:55:39;;;;;;;45.40;21.37;;;5.20;77.80;;;;;;5010079;28;20297;-73
2024/03/07 08:58:08;;;;;;;52.50;22.60;;;5.20;76.70;;;;;;5010372;28;20194;-74
2024/03/07 09:00:34;;;;;;;47.63;21.80;;;5.20;76.10;;;;;;5008088;28;20185;-74
2024/03/07 09:03:03;;;;;;;44.83;20.70;;;5.30;76.10;;;;;;5010464;28;20421;-74
2024/03/07 09:05:29;;;;;;;46.50;21.53;;;5.40;76.10;;;;;;5011167;28;20471;-71
2024/03/07 09:07:55;;;;;;;50.17;22.67;;;5.60;75.70;;;;;;5010784;28;20456;-71
2024/03/07 09:10:21;;;;;;;44.53;22.00;;;5.30;74.60;;;;;;5011271;28;20460;-70
2024/03/07 09:12:49;;;;;;;48.03;23.77;;;5.40;75.40;;;;;;5008645;28;20198;-71
2024/03/07 09:15:16;;;;;;;49.27;21.77;;;5.30;75.40;;;;;;5006096;28;20193;-70
2024/03/07 09:17:44;;;;;;;59.50;27.03;;;5.30;76.40;;;;;;5010833;28;20487;-72
2024/03/07 09:20:14;;;;;;;47.00;22.87;;;5.40;76.20;;;;;;5011564;28;20409;-73
2024/03/07 09:22:41;;;;;;;52.37;23.50;;;5.50;76.20;;;;;;5007997;28;20460;-71
2024/03/07 09:25:08;;;;;;;53.00;23.27;;;5.50;75.90;;;;;;5010393;28;20904;-72
2024/03/07 09:27:33;;;;;;;49.73;22.83;;;5.40;76.20;;;;;;5010414;28;20451;-70
2024/03/07 09:29:59;;;;;;;50.33;22.83;;;5.40;76.40;;;;;;5010055;28;20487;-70
2024/03/07 09:32:24;;;;;;;47.00;22.77;;;5.70;76.40;;;;;;5008101;28;20201;-70
2024/03/07 09:34:50;;;;;;;55.23;22.63;;;6.00;76.10;;;;;;5010947;28;20686;-70
2024/03/07 09:37:16;;;;;;;51.83;22.50;;;6.20;75.70;;;;;;5010840;28;20214;-72
2024/03/07 09:39:41;;;;;;;53.90;25.17;;;6.30;74.90;;;;;;5013644;28;20222;-71
2024/03/07 09:42:11;;;;;;;55.77;25.20;;;6.30;74.30;;;;;;5008827;28;20453;-75
2024/03/07 09:44:40;;;;;;;49.03;22.47;;;6.30;74.60;;;;;;5006042;28;20727;-71
2024/03/07 09:47:07;;;;;;;56.33;24.03;;;6.30;74.50;;;;;;5010256;28;20429;-73
2024/03/07 09:49:36;;;;;;;55.97;23.63;;;6.40;74.30;;;;;;5012440;28;20918;-72
2024/03/07 09:52:08;;;;;;;45.97;22.57;;;6.60;73.90;;;;;;5011286;28;20472;-72
2024/03/07 09:54:34;;;;;;;55.77;24.20;;;6.80;74.00;;;;;;5008605;28;20922;-71
2024/03/07 09:57:02;;;;;;;54.83;23.87;;;6.70;73.60;;;;;;5029483;28;20921;-72
2024/03/07 09:59:32;;;;;;;51.53;23.40;;;6.90;73.60;;;;;;5008939;28;20423;-71
2024/03/07 10:01:59;;;;;;;54.87;24.37;;;6.90;72.70;;;;;;5012669;28;20461;-70
2024/03/07 10:04:53;;;;;;;49.73;24.87;;;6.90;72.90;;;;;;5015545;28;20432;-72
2024/03/07 10:07:19;;;;;;;64.03;27.10;;;6.90;72.90;;;;;;5011183;28;20432;-72
2024/03/07 10:09:45;;;;;;;61.93;25.80;;;6.60;73.20;;;;;;5019512;28;20420;-72
2024/03/07 10:12:15;;;;;;;46.97;23.60;;;6.70;73.30;;;;;;5013275;28;20214;-70
2024/03/07 10:14:49;;;;;;;49.70;22.83;;;6.80;72.90;;;;;;5014288;28;20456;-71
2024/03/07 10:17:15;;;;;;;46.80;22.90;;;6.90;72.60;;;;;;5012602;28;20464;-72
2024/03/07 10:19:41;;;;;;;60.47;25.60;;;7.10;72.60;;;;;;5014076;28;20435;-71
2024/03/07 10:22:06;;;;;;;50.00;24.10;;;7.10;72.10;;;;;;5011219;28;20681;-72
2024/03/07 10:24:32;;;;;;;53.57;24.77;;;7.00;71.80;;;;;;5012718;28;20463;-72
2024/03/07 10:27:00;;;;;;;54.90;24.37;;;7.00;71.80;;;;;;5012072;28;20657;-73
2024/03/07 10:29:26;;;;;;;54.80;24.80;;;7.00;72.10;;;;;;5012840;28;20423;-71
2024/03/07 10:31:52;;;;;;;59.53;26.07;;;6.70;72.70;;;;;;5010608;28;20611;-71
2024/03/07 10:34:18;;;;;;;58.23;24.70;;;6.80;73.20;;;;;;5013496;28;20479;-72
2024/03/07 10:36:44;;;;;;;53.07;22.87;;;7.10;73.00;;;;;;5012904;28;21000;-72
2024/03/07 10:39:16;;;;;;;49.90;23.07;;;7.10;71.70;;;;;;5012486;28;20471;-70
2024/03/07 10:41:47;;;;;;;56.20;23.50;;;7.40;71.30;;;;;;5011940;28;20476;-73
2024/03/07 10:44:21;;;;;;;62.50;25.40;;;7.40;71.40;;;;;;5012561;28;20409;-72
2024/03/07 10:46:52;;;;;;;57.57;23.93;;;7.10;71.10;;;;;;5012123;28;20453;-72
2024/03/07 10:49:23;;;;;;;53.90;22.17;;;7.20;72.10;;;;;;5020905;28;20413;-70
2024/03/07 10:52:07;;;;;;;50.53;22.50;;;7.30;71.60;;;;;;5009552;28;20457;-70
2024/03/07 10:55:00;;;;;;;46.40;22.33;;;7.40;71.40;;;;;;5013181;28;20448;-71
2024/03/07 10:57:34;;;;;;;52.73;22.97;;;7.40;71.40;;;;;;5008573;28;20471;-71
2024/03/07 11:00:27;;;;;;;54.00;24.30;;;7.60;71.10;;;;;;5012196;28;20417;-71
2024/03/07 11:02:54;;;;;;;61.17;25.90;;;7.60;70.40;;;;;;5010131;28;20437;-73
2024/03/07 11:05:24;;;;;;;54.27;24.00;;;7.50;70.80;;;;;;5012211;28;20421;-70
2024/03/07 11:07:54;;;;;;;50.47;24.60;;;7.60;71.30;;;;;;5012148;28;21048;-72
2024/03/07 11:10:20;;;;;;;53.00;25.47;;;7.40;71.00;;;;;;5005480;28;20475;-70
2024/03/07 11:12:47;;;;;;;56.27;23.30;;;7.60;71.60;;;;;;5009367;28;20453;-72
2024/03/07 11:15:19;;;;;;;52.60;24.57;;;7.70;71.10;;;;;;5011253;28;20413;-71
2024/03/07 11:17:47;;;;;;;45.27;22.20;;;7.90;70.10;;;;;;5008053;28;20445;-71
2024/03/07 11:20:26;;;;;;;58.00;27.00;;;7.60;70.50;;;;;;5011678;28;20423;-72
2024/03/07 11:22:55;;;;;;;54.90;25.40;;;7.70;70.50;;;;;;5009976;28;20479;-70
2024/03/07 11:25:22;;;;;;;65.77;25.40;;;7.60;70.50;;;;;;5012488;28;20428;-73
2024/03/07 11:27:53;;;;;;;58.37;25.90;;;7.50;71.00;;;;;;5011362;28;20441;-71
2024/03/07 11:30:21;;;;;;;60.97;26.80;;;7.30;71.60;;;;;;5016442;28;20429;-72
2024/03/07 11:32:49;;;;;;;63.90;25.60;;;7.10;71.70;;;;;;5009141;28;20441;-73
2024/03/07 11:35:15;;;;;;;55.33;23.53;;;7.40;72.70;;;;;;5011176;28;20406;-71
2024/03/07 11:37:47;;;;;;;52.17;23.37;;;7.90;71.60;;;;;;5013033;28;20930;-71
2024/03/07 11:40:19;;;;;;;51.50;23.97;;;8.10;70.50;;;;;;5012792;28;20451;-72
2024/03/07 11:42:49;;;;;;;51.47;23.77;;;8.50;70.10;;;;;;5008722;28;20980;-73
2024/03/07 11:45:29;;;;;;;53.23;25.00;;;8.30;69.10;;;;;;5006433;28;20433;-72
2024/03/07 11:48:06;;;;;;;54.73;23.90;;;8.20;69.50;;;;;;5012058;28;20437;-72
2024/03/07 11:50:34;;;;;;;49.53;22.97;;;8.00;69.90;;;;;;5009125;28;20518;-71
2024/03/07 11:53:01;;;;;;;57.33;23.57;;;8.00;70.20;;;;;;5012683;28;20492;-71
2024/03/07 11:55:33;;;;;;;54.57;25.53;;;7.90;71.10;;;;;;5010769;28;20955;-72
2024/03/07 11:57:59;;;;;;;48.83;23.50;;;8.00;70.80;;;;;;5011012;28;20427;-72
2024/03/07 12:00:29;;;;;;;52.67;23.73;;;7.90;71.30;;;;;;5008586;28;20429;-69
2024/03/07 12:02:55;;;;;;;56.50;23.83;;;8.20;71.30;;;;;;5010232;28;20674;-71
2024/03/07 12:05:21;;;;;;;49.77;23.27;;;8.40;71.00;;;;;;5011115;28;20439;-72
2024/03/07 12:07:47;;;;;;;50.90;23.03;;;8.50;70.40;;;;;;5010775;28;20208;-71
2024/03/07 12:10:12;;;;;;;56.00;25.67;;;8.60;69.80;;;;;;5010577;28;20204;-72
2024/03/07 12:12:38;;;;;;;52.60;23.17;;;8.80;69.20;;;;;;5006679;28;20977;-71
2024/03/07 12:15:09;;;;;;;47.33;22.50;;;8.80;69.10;;;;;;5010867;28;20194;-71
2024/03/07 12:17:35;;;;;;;50.20;23.93;;;8.90;69.10;;;;;;5010981;28;20713;-73
2024/03/07 12:20:24;;;;;;;51.30;22.07;;;8.80;68.90;;;;;;5012829;28;20460;-72
2024/03/07 12:22:48;;;;;;;46.97;22.43;;;8.80;68.80;;;;;;5009740;28;20879;-71
2024/03/07 12:25:21;;;;;;;48.60;22.90;;;8.60;68.60;;;;;;5010520;28;20449;-71
2024/03/07 12:27:48;;;;;;;55.40;22.90;;;8.20;69.80;;;;;;5010446;28;20413;-73
2024/03/07 12:30:19;;;;;;;47.03;20.83;;;8.30;69.70;;;;;;5010441;28;20421;-71
2024/03/07 12:32:52;;;;;;;50.53;23.27;;;8.30;69.70;;;;;;5008256;28;20439;-71
2024/03/07 12:35:18;;;;;;;54.90;23.67;;;8.40;69.50;;;;;;5004962;28;20437;-71
2024/03/07 12:37:46;;;;;;;51.97;23.30;;;8.50;69.40;;;;;;5010098;28;20476;-70
2024/03/07 12:40:19;;;;;;;52.97;24.97;;;8.40;69.40;;;;;;5010606;28;20479;-72